createdAt,value
2022-12-17T00:00:54.696Z,25.02
2022-12-17T00:02:16.998Z,24.92
2022-12-17T00:03:37.867Z,25.83
2022-12-17T00:04:58.572Z,25.08
2022-12-17T00:06:18.850Z,23.77
2022-12-17T00:07:39.783Z,23.02
2022-12-17T00:09:00.175Z,23.95
2022-12-17T00:10:20.748Z,23.77
2022-12-17T00:11:41.303Z,23.35
2022-12-17T00:13:01.586Z,22.85
2022-12-17T00:14:21.871Z,25.08
2022-12-17T00:15:47.579Z,23.77
2022-12-17T00:17:08.174Z,23.75
2022-12-17T00:18:28.480Z,26.27
2022-12-17T00:19:48.699Z,24.38
2022-12-17T00:21:17.388Z,26.52
2022-12-17T00:22:37.699Z,24.95
2022-12-17T00:23:58.002Z,25.67
2022-12-17T00:25:18.385Z,26.30
2022-12-17T00:26:40.128Z,26.63
2022-12-17T00:28:00.577Z,25.70
2022-12-17T00:29:21.152Z,24.60
2022-12-17T00:30:41.752Z,26.17
2022-12-17T00:32:02.291Z,24.48
2022-12-17T00:33:22.734Z,24.38
2022-12-17T00:34:42.826Z,24.42
2022-12-17T00:36:08.739Z,24.77
2022-12-17T00:37:29.034Z,21.58
2022-12-17T00:38:49.555Z,22.88
2022-12-17T00:40:10.339Z,17.15
2022-12-17T00:41:30.612Z,21.90
2022-12-17T00:42:50.868Z,21.30
2022-12-17T00:45:32.472Z,20.75
2022-12-17T00:46:53.173Z,21.35
2022-12-17T00:48:13.685Z,21.67
2022-12-17T00:49:35.730Z,21.63
2022-12-17T00:50:55.916Z,21.38
2022-12-17T00:52:17.281Z,23.42
2022-12-17T00:53:38.600Z,23.83
2022-12-17T00:54:59.285Z,20.85
2022-12-17T00:56:19.588Z,22.10
2022-12-17T00:57:39.831Z,20.95
2022-12-17T00:59:00.394Z,22.17
2022-12-17T01:00:21.248Z,18.83
2022-12-17T01:01:41.697Z,18.75
2022-12-17T01:03:02.212Z,18.83
2022-12-17T01:04:22.581Z,17.05
2022-12-17T01:05:43.055Z,17.63
2022-12-17T01:07:03.394Z,17.23
2022-12-17T01:08:28.401Z,18.15
2022-12-17T01:09:48.533Z,19.05
2022-12-17T01:11:09.150Z,18.80
2022-12-17T01:12:29.409Z,18.77
2022-12-17T01:13:49.807Z,20.38
2022-12-17T01:15:10.402Z,18.73
2022-12-17T01:16:32.591Z,17.98
2022-12-17T01:17:52.954Z,16.27
2022-12-17T01:19:17.635Z,16.40
2022-12-17T01:21:59.262Z,16.10
2022-12-17T01:24:39.923Z,16.00
2022-12-17T01:26:00.514Z,11.98
2022-12-17T01:27:20.795Z,15.68
2022-12-17T01:28:44.437Z,16.17
2022-12-17T01:30:04.997Z,16.30
2022-12-17T01:31:28.131Z,15.95
2022-12-17T01:32:50.615Z,16.88
2022-12-17T01:34:11.157Z,14.95
2022-12-17T01:35:31.700Z,14.50
2022-12-17T01:36:52.216Z,15.40
2022-12-17T01:38:12.685Z,13.98
2022-12-17T01:39:33.174Z,14.83
2022-12-17T01:40:53.685Z,13.10
2022-12-17T01:42:13.929Z,12.77
2022-12-17T01:43:53.454Z,12.98
2022-12-17T01:45:14.336Z,10.93
2022-12-17T01:46:34.567Z,10.52
2022-12-17T01:48:17.541Z,11.15
2022-12-17T01:49:40.059Z,11.13
2022-12-17T01:51:08.255Z,11.25
2022-12-17T01:52:30.838Z,11.35
2022-12-17T01:53:54.931Z,12.15
2022-12-17T01:55:17.317Z,11.82
2022-12-17T01:56:38.009Z,12.00
2022-12-17T01:57:58.737Z,11.88
2022-12-17T01:59:20.006Z,12.43
2022-12-17T02:00:40.597Z,11.73
2022-12-17T02:02:01.495Z,11.48
2022-12-17T02:03:22.807Z,12.05
2022-12-17T02:04:43.793Z,12.50
2022-12-17T02:06:07.947Z,11.18
2022-12-17T02:07:40.669Z,10.50
2022-12-17T02:09:17.834Z,10.63
2022-12-17T02:10:59.967Z,11.60
2022-12-17T02:12:28.682Z,10.98
2022-12-17T02:13:53.955Z,10.35
2022-12-17T02:15:23.811Z,11.60
2022-12-17T02:16:53.080Z,11.50
2022-12-17T02:18:17.928Z,11.50
2022-12-17T02:20:04.786Z,12.50
2022-12-17T02:21:26.039Z,12.85
2022-12-17T02:23:06.589Z,11.23
2022-12-17T02:24:30.962Z,11.75
2022-12-17T02:26:07.031Z,11.02
2022-12-17T02:27:36.666Z,11.70
2022-12-17T02:29:00.118Z,11.63
2022-12-17T02:30:24.716Z,11.82
2022-12-17T02:32:58.196Z,11.32
2022-12-17T02:34:18.851Z,11.63
2022-12-17T02:35:46.397Z,11.43
2022-12-17T02:37:06.815Z,10.73
2022-12-17T02:38:38.032Z,11.15
2022-12-17T02:39:58.681Z,11.13
2022-12-17T02:41:19.545Z,11.30
2022-12-17T02:42:42.518Z,11.57
2022-12-17T02:44:03.311Z,10.50
2022-12-17T02:45:25.383Z,11.40
2022-12-17T02:46:45.491Z,10.48
2022-12-17T02:48:06.010Z,11.85
2022-12-17T02:49:26.539Z,11.50
2022-12-17T02:50:47.105Z,7.57
2022-12-17T02:52:09.971Z,10.63
2022-12-17T02:53:31.378Z,10.30
2022-12-17T02:56:29.893Z,10.75
2022-12-17T02:57:53.743Z,10.35
2022-12-17T02:59:14.581Z,11.45
2022-12-17T03:00:35.154Z,12.55
2022-12-17T03:01:55.510Z,10.75
2022-12-17T03:03:16.196Z,11.18
2022-12-17T03:04:36.982Z,10.40
2022-12-17T03:05:57.375Z,10.32
2022-12-17T03:07:17.843Z,9.70
2022-12-17T03:08:38.383Z,10.40
2022-12-17T03:09:58.778Z,9.75
2022-12-17T03:11:19.547Z,8.40
2022-12-17T03:12:40.030Z,10.18
2022-12-17T03:14:00.131Z,8.27
2022-12-17T03:15:20.403Z,9.55
2022-12-17T03:16:40.720Z,10.00
2022-12-17T03:18:00.941Z,8.55
2022-12-17T03:19:22.326Z,8.38
2022-12-17T03:22:03.121Z,7.70
2022-12-17T03:23:25.723Z,8.65
2022-12-17T03:24:46.374Z,8.90
2022-12-17T03:26:06.526Z,8.70
2022-12-17T03:27:27.126Z,9.18
2022-12-17T03:28:47.490Z,8.50
2022-12-17T03:30:07.765Z,9.35
2022-12-17T03:31:27.985Z,8.65
2022-12-17T03:32:48.318Z,8.13
2022-12-17T03:34:08.716Z,9.07
2022-12-17T03:35:28.970Z,6.38
2022-12-17T03:36:50.656Z,8.35
2022-12-17T03:38:11.007Z,8.27
2022-12-17T03:39:31.407Z,5.97
2022-12-17T03:40:51.960Z,8.95
2022-12-17T03:42:12.357Z,9.25
2022-12-17T03:43:32.722Z,8.88
2022-12-17T03:44:53.199Z,8.98
2022-12-17T03:46:13.675Z,8.80
2022-12-17T03:47:33.966Z,8.65
2022-12-17T03:48:54.665Z,8.85
2022-12-17T03:50:25.741Z,8.65
2022-12-17T03:51:45.961Z,8.00
2022-12-17T03:53:06.150Z,7.85
2022-12-17T03:54:26.460Z,7.90
2022-12-17T03:55:46.827Z,8.15
2022-12-17T03:57:09.582Z,8.15
2022-12-17T03:58:33.539Z,8.38
2022-12-17T03:59:53.827Z,9.03
2022-12-17T04:01:14.001Z,8.90
2022-12-17T04:02:34.506Z,8.48
2022-12-17T04:03:54.956Z,8.10
2022-12-17T04:05:19.948Z,8.82
2022-12-17T04:06:41.016Z,9.15
2022-12-17T04:08:01.328Z,8.85
2022-12-17T04:09:22.079Z,8.38
2022-12-17T04:10:42.915Z,8.10
2022-12-17T04:12:03.351Z,7.88
2022-12-17T04:13:24.607Z,7.83
2022-12-17T04:16:05.075Z,7.22
2022-12-17T04:17:25.677Z,7.10
2022-12-17T04:18:46.254Z,7.95
2022-12-17T04:20:06.940Z,8.43
2022-12-17T04:21:27.698Z,8.20
2022-12-17T04:22:47.910Z,7.50
2022-12-17T04:24:08.288Z,8.80
2022-12-17T04:25:28.698Z,7.68
2022-12-17T04:26:49.186Z,8.30
2022-12-17T04:28:09.740Z,7.33
2022-12-17T04:29:30.354Z,5.82
2022-12-17T04:30:50.862Z,8.68
2022-12-17T04:32:11.426Z,8.40
2022-12-17T04:33:31.746Z,6.35
2022-12-17T04:34:51.613Z,7.80
2022-12-17T04:36:11.685Z,8.40
2022-12-17T04:37:31.896Z,8.43
2022-12-17T04:38:52.147Z,8.73
2022-12-17T04:40:12.403Z,8.40
2022-12-17T04:41:32.695Z,8.80
2022-12-17T04:42:52.963Z,9.07
2022-12-17T04:44:13.114Z,8.65
2022-12-17T04:45:33.864Z,8.75
2022-12-17T04:46:53.982Z,9.52
2022-12-17T04:48:22.642Z,8.90
2022-12-17T04:49:42.964Z,9.55
2022-12-17T04:51:03.688Z,9.70
2022-12-17T04:52:24.145Z,10.32
2022-12-17T04:53:44.411Z,6.78
2022-12-17T04:55:04.695Z,9.43
2022-12-17T04:56:25.352Z,10.20
2022-12-17T04:57:45.803Z,9.90
2022-12-17T04:59:06.223Z,10.50
2022-12-17T05:00:27.351Z,9.95
2022-12-17T05:01:47.995Z,9.55
2022-12-17T05:03:08.236Z,10.27
2022-12-17T05:04:28.751Z,10.57
2022-12-17T05:05:49.358Z,11.13
2022-12-17T05:07:09.586Z,11.32
2022-12-17T05:08:29.792Z,11.85
2022-12-17T05:09:50.100Z,13.00
2022-12-17T05:11:10.563Z,12.43
2022-12-17T05:12:31.056Z,12.13
2022-12-17T05:13:51.526Z,11.80
2022-12-17T05:15:11.664Z,11.85
2022-12-17T05:16:32.340Z,12.60
2022-12-17T05:17:53.038Z,12.63
2022-12-17T05:19:13.570Z,9.52
2022-12-17T05:20:34.158Z,13.30
2022-12-17T05:21:54.322Z,13.07
2022-12-17T05:23:14.623Z,19.27
2022-12-17T05:24:39.739Z,15.65
2022-12-17T05:26:00.503Z,13.00
2022-12-17T05:27:20.669Z,11.52
2022-12-17T05:28:41.159Z,12.80
2022-12-17T05:30:01.644Z,11.15
2022-12-17T05:31:21.851Z,12.98
2022-12-17T05:32:42.138Z,12.32
2022-12-17T05:34:02.454Z,11.60
2022-12-17T05:35:23.159Z,11.13
2022-12-17T05:36:44.168Z,10.82
2022-12-17T05:38:04.333Z,10.35
2022-12-17T05:39:24.850Z,10.07
2022-12-17T05:40:45.408Z,10.23
2022-12-17T05:42:06.000Z,10.95
2022-12-17T05:43:30.147Z,10.18
2022-12-17T05:44:50.620Z,9.98
2022-12-17T05:46:11.009Z,10.50
2022-12-17T05:47:31.257Z,10.20
2022-12-17T05:48:52.671Z,10.80
2022-12-17T05:51:38.342Z,9.82
2022-12-17T05:52:59.034Z,12.45
2022-12-17T05:54:19.634Z,10.70
2022-12-17T05:55:40.172Z,12.20
2022-12-17T05:57:00.875Z,14.25
2022-12-17T05:58:26.177Z,14.88
2022-12-17T05:59:46.824Z,15.50
2022-12-17T06:01:07.093Z,14.20
2022-12-17T06:02:27.314Z,12.98
2022-12-17T06:03:47.950Z,13.90
2022-12-17T06:05:08.438Z,12.35
2022-12-17T06:06:28.852Z,14.20
2022-12-17T06:07:49.344Z,16.58
2022-12-17T06:09:09.791Z,19.40
2022-12-17T06:10:30.063Z,25.60
2022-12-17T06:11:50.493Z,26.17
2022-12-17T06:13:14.894Z,27.30
2022-12-17T06:14:35.157Z,26.38
2022-12-17T06:15:55.852Z,18.70
2022-12-17T06:17:16.489Z,30.80
2022-12-17T06:18:36.814Z,35.10
2022-12-17T06:19:57.016Z,26.25
2022-12-17T06:21:17.256Z,29.55
2022-12-17T06:22:37.362Z,36.85
2022-12-17T06:23:57.901Z,42.00
2022-12-17T06:25:17.958Z,45.35
2022-12-17T06:26:38.199Z,56.25
2022-12-17T06:27:58.534Z,35.00
2022-12-17T06:29:18.889Z,22.23
2022-12-17T06:30:39.431Z,19.05
2022-12-17T06:31:59.714Z,17.98
2022-12-17T06:33:27.442Z,14.60
2022-12-17T06:34:47.737Z,12.88
2022-12-17T06:36:07.894Z,12.05
2022-12-17T06:37:28.278Z,10.80
2022-12-17T06:38:48.922Z,10.55
2022-12-17T06:40:09.282Z,11.60
2022-12-17T06:41:29.919Z,12.30
2022-12-17T06:42:50.366Z,9.90
2022-12-17T06:44:10.581Z,12.23
2022-12-17T06:45:31.106Z,11.73
2022-12-17T06:46:51.332Z,11.75
2022-12-17T06:48:14.228Z,11.82
2022-12-17T06:49:34.819Z,10.88
2022-12-17T06:50:56.741Z,11.38
2022-12-17T06:52:17.192Z,10.65
2022-12-17T06:53:38.175Z,11.30
2022-12-17T06:54:58.949Z,10.73
2022-12-17T06:56:19.277Z,10.65
2022-12-17T06:57:41.842Z,10.15
2022-12-17T06:59:24.405Z,11.27
2022-12-17T07:00:44.543Z,10.48
2022-12-17T07:02:04.914Z,9.73
2022-12-17T07:03:25.181Z,10.70
2022-12-17T07:04:45.274Z,10.93
2022-12-17T07:06:05.587Z,11.18
2022-12-17T07:07:25.807Z,10.25
2022-12-17T07:08:46.585Z,10.70
2022-12-17T07:10:12.301Z,10.63
2022-12-17T07:11:34.322Z,10.05
2022-12-17T07:12:54.691Z,10.52
2022-12-17T07:14:14.935Z,11.85
2022-12-17T07:15:35.487Z,16.02
2022-12-17T07:16:56.042Z,26.05
2022-12-17T07:18:28.514Z,28.25
2022-12-17T07:19:48.938Z,20.92
2022-12-17T07:21:11.894Z,23.53
2022-12-17T07:22:32.264Z,16.65
2022-12-17T07:23:52.761Z,14.98
2022-12-17T07:25:13.255Z,13.30
2022-12-17T07:26:33.766Z,12.48
2022-12-17T07:27:54.315Z,12.35
2022-12-17T07:29:14.753Z,12.88
2022-12-17T07:30:35.283Z,8.95
2022-12-17T07:31:55.688Z,9.00
2022-12-17T07:33:24.793Z,12.27
2022-12-17T07:34:44.970Z,12.35
2022-12-17T07:36:05.234Z,12.73
2022-12-17T07:37:25.811Z,13.07
2022-12-17T07:38:46.341Z,13.07
2022-12-17T07:40:06.597Z,14.00
2022-12-17T07:41:27.239Z,13.45
2022-12-17T07:42:47.664Z,14.63
2022-12-17T07:44:08.282Z,14.65
2022-12-17T07:45:29.264Z,14.75
2022-12-17T07:46:49.703Z,14.73
2022-12-17T07:48:13.510Z,14.23
2022-12-17T07:49:34.062Z,13.40
2022-12-17T07:50:54.365Z,14.55
2022-12-17T07:52:14.732Z,14.35
2022-12-17T07:53:35.555Z,14.75
2022-12-17T07:54:56.185Z,15.23
2022-12-17T07:56:16.983Z,14.70
2022-12-17T07:57:37.173Z,15.18
2022-12-17T07:58:57.594Z,16.02
2022-12-17T08:00:18.140Z,15.33
2022-12-17T08:01:38.922Z,14.73
2022-12-17T08:02:59.270Z,14.48
2022-12-17T08:04:19.726Z,14.35
2022-12-17T08:05:40.079Z,15.07
2022-12-17T08:07:05.480Z,15.00
2022-12-17T08:08:30.749Z,14.05
2022-12-17T08:09:53.329Z,14.77
2022-12-17T08:11:13.977Z,14.30
2022-12-17T08:12:54.052Z,14.77
2022-12-17T08:14:14.669Z,13.15
2022-12-17T08:15:45.478Z,12.68
2022-12-17T08:17:06.217Z,10.43
2022-12-17T08:18:27.020Z,13.10
2022-12-17T08:19:47.502Z,14.65
2022-12-17T08:21:07.916Z,14.53
2022-12-17T08:22:28.587Z,15.05
2022-12-17T08:23:48.910Z,15.00
2022-12-17T08:25:09.307Z,14.90
2022-12-17T08:26:29.652Z,14.40
2022-12-17T08:27:49.863Z,14.43
2022-12-17T08:29:10.133Z,14.50
2022-12-17T08:30:36.984Z,13.65
2022-12-17T08:31:57.514Z,13.73
2022-12-17T08:33:24.634Z,13.98
2022-12-17T08:34:45.159Z,14.07
2022-12-17T08:36:10.760Z,14.68
2022-12-17T08:37:31.041Z,14.43
2022-12-17T08:38:51.595Z,13.57
2022-12-17T08:41:39.475Z,13.63
2022-12-17T08:42:59.744Z,13.43
2022-12-17T08:44:22.211Z,13.60
2022-12-17T08:45:42.796Z,14.88
2022-12-17T08:47:03.939Z,10.35
2022-12-17T08:48:26.303Z,16.08
2022-12-17T08:49:46.745Z,17.92
2022-12-17T08:51:07.227Z,24.30
2022-12-17T08:52:27.608Z,25.90
2022-12-17T08:53:48.140Z,30.13
2022-12-17T08:55:08.542Z,29.48
2022-12-17T08:56:29.147Z,25.67
2022-12-17T08:57:49.380Z,18.02
2022-12-17T08:59:09.862Z,17.05
2022-12-17T09:00:31.092Z,17.92
2022-12-17T09:01:51.559Z,20.65
2022-12-17T09:03:19.884Z,19.48
2022-12-17T09:04:40.647Z,16.42
2022-12-17T09:06:02.121Z,18.00
2022-12-17T09:07:25.564Z,20.05
2022-12-17T09:08:46.051Z,15.80
2022-12-17T09:10:06.501Z,14.80
2022-12-17T09:11:27.157Z,14.30
2022-12-17T09:12:47.885Z,13.80
2022-12-17T09:14:08.533Z,14.60
2022-12-17T09:15:29.025Z,13.98
2022-12-17T09:16:49.584Z,14.03
2022-12-17T09:18:11.179Z,14.32
2022-12-17T09:19:31.783Z,14.38
2022-12-17T09:20:52.236Z,13.45
2022-12-17T09:22:12.596Z,13.27
2022-12-17T09:23:36.880Z,14.55
2022-12-17T09:24:57.484Z,14.32
2022-12-17T09:26:17.888Z,13.73
2022-12-17T09:27:38.201Z,13.50
2022-12-17T09:28:58.947Z,14.70
2022-12-17T09:30:19.262Z,14.98
2022-12-17T09:31:39.421Z,16.50
2022-12-17T09:33:00.131Z,15.02
2022-12-17T09:34:20.290Z,15.52
2022-12-17T09:35:40.871Z,15.40
2022-12-17T09:37:01.584Z,16.42
2022-12-17T09:38:22.490Z,16.45
2022-12-17T09:39:42.862Z,15.75
2022-12-17T09:41:08.321Z,15.63
2022-12-17T09:42:37.317Z,15.68
2022-12-17T09:44:04.034Z,16.27
2022-12-17T09:45:32.585Z,15.95
2022-12-17T09:47:30.656Z,15.40
2022-12-17T09:49:04.742Z,14.77
2022-12-17T09:50:32.151Z,14.90
2022-12-17T09:51:56.836Z,16.05
2022-12-17T09:53:20.442Z,16.67
2022-12-17T09:54:55.171Z,15.82
2022-12-17T09:56:20.087Z,15.27
2022-12-17T09:57:46.885Z,14.10
2022-12-17T09:59:07.239Z,18.83
2022-12-17T10:00:46.487Z,18.05
2022-12-17T10:02:06.977Z,17.75
2022-12-17T10:03:39.397Z,17.80
2022-12-17T10:05:04.414Z,17.83
2022-12-17T10:06:35.518Z,18.65
2022-12-17T10:07:57.416Z,18.63
2022-12-17T10:09:20.763Z,18.83
2022-12-17T10:10:43.050Z,19.35
2022-12-17T10:12:03.964Z,19.30
2022-12-17T10:13:30.863Z,18.40
2022-12-17T10:14:51.557Z,16.48
2022-12-17T10:16:11.986Z,15.48
2022-12-17T10:17:37.820Z,15.30
2022-12-17T10:18:58.145Z,15.52
2022-12-17T10:20:19.588Z,16.05
2022-12-17T10:23:03.130Z,15.35
2022-12-17T10:24:28.523Z,15.63
2022-12-17T10:25:48.984Z,15.70
2022-12-17T10:27:09.493Z,17.33
2022-12-17T10:28:32.515Z,12.00
2022-12-17T10:29:53.261Z,17.08
2022-12-17T10:31:15.520Z,15.57
2022-12-17T10:32:35.926Z,16.02
2022-12-17T10:33:57.996Z,16.00
2022-12-17T10:35:20.718Z,16.75
2022-12-17T10:36:42.725Z,17.92
2022-12-17T10:38:03.314Z,17.65
2022-12-17T10:39:25.326Z,18.63
2022-12-17T10:40:49.985Z,17.85
2022-12-17T10:42:10.494Z,18.73
2022-12-17T10:43:51.167Z,18.27
2022-12-17T10:45:11.874Z,16.95
2022-12-17T10:46:44.931Z,16.92
2022-12-17T10:48:05.161Z,17.08
2022-12-17T10:49:37.500Z,18.33
2022-12-17T10:51:00.050Z,16.67
2022-12-17T10:52:40.578Z,16.73
2022-12-17T10:54:08.516Z,17.42
2022-12-17T10:55:46.833Z,17.05
2022-12-17T10:57:11.869Z,18.10
2022-12-17T10:58:38.330Z,18.92
2022-12-17T10:59:58.778Z,18.30
2022-12-17T11:01:21.007Z,18.67
2022-12-17T11:02:57.583Z,18.20
2022-12-17T11:04:17.991Z,17.90
2022-12-17T11:05:59.448Z,17.55
2022-12-17T11:08:41.311Z,18.20
2022-12-17T11:10:09.634Z,17.95
2022-12-17T11:11:32.973Z,18.83
2022-12-17T11:13:15.714Z,18.90
2022-12-17T11:14:36.427Z,17.13
2022-12-17T11:16:02.310Z,13.57
2022-12-17T11:17:26.034Z,18.33
2022-12-17T11:18:58.302Z,18.67
2022-12-17T11:20:31.093Z,17.75
2022-12-17T11:22:06.292Z,18.30
2022-12-17T11:23:35.867Z,18.58
2022-12-17T11:25:26.244Z,18.25
2022-12-17T11:26:52.163Z,18.23
2022-12-17T11:28:28.834Z,18.55
2022-12-17T11:29:49.090Z,17.80
2022-12-17T11:31:22.454Z,18.40
2022-12-17T11:32:45.925Z,18.75
2022-12-17T11:34:23.523Z,19.48
2022-12-17T11:36:13.103Z,20.65
2022-12-17T11:37:44.953Z,19.55
2022-12-17T11:39:12.190Z,18.98
2022-12-17T11:40:35.470Z,19.83
2022-12-17T11:42:23.766Z,19.55
2022-12-17T11:44:02.554Z,19.63
2022-12-17T11:45:58.675Z,19.58
2022-12-17T11:47:43.885Z,19.88
2022-12-17T11:49:35.463Z,19.45
2022-12-17T11:51:07.542Z,19.08
2022-12-17T11:52:37.760Z,19.95
2022-12-17T11:54:27.722Z,19.73
2022-12-17T11:56:17.025Z,18.83
2022-12-17T11:57:48.253Z,20.33
2022-12-17T11:59:36.664Z,19.00
2022-12-17T12:01:09.152Z,19.65
2022-12-17T12:03:04.726Z,18.55
2022-12-17T12:04:34.665Z,19.42
2022-12-17T12:06:09.878Z,18.42
2022-12-17T12:07:36.354Z,21.13
2022-12-17T12:09:32.888Z,21.20
2022-12-17T12:11:18.904Z,19.85
2022-12-17T12:12:42.460Z,19.90
2022-12-17T12:14:21.601Z,19.50
2022-12-17T12:15:59.034Z,19.05
2022-12-17T12:17:41.374Z,19.13
2022-12-17T12:19:42.574Z,19.95
2022-12-17T12:21:08.668Z,19.55
2022-12-17T12:22:51.388Z,20.30
2022-12-17T12:25:02.893Z,20.33
2022-12-17T12:26:39.552Z,20.23
2022-12-17T12:28:28.964Z,20.60
2022-12-17T12:30:23.005Z,20.70
2022-12-17T12:32:05.525Z,19.63
2022-12-17T12:34:03.683Z,20.77
2022-12-17T12:35:32.384Z,19.13
2022-12-17T12:36:54.737Z,19.40
2022-12-17T12:38:15.351Z,19.13
2022-12-17T12:39:48.034Z,19.70
2022-12-17T12:41:31.799Z,21.65
2022-12-17T12:43:25.946Z,19.88
2022-12-17T12:45:07.275Z,19.58
2022-12-17T12:46:43.001Z,19.35
2022-12-17T12:48:12.559Z,17.92
2022-12-17T12:49:44.124Z,18.10
2022-12-17T12:52:42.832Z,16.13
2022-12-17T12:54:03.436Z,16.17
2022-12-17T12:55:24.489Z,16.80
2022-12-17T12:56:53.347Z,17.98
2022-12-17T12:58:20.403Z,17.02
2022-12-17T12:59:47.766Z,17.50
2022-12-17T13:01:08.509Z,18.85
2022-12-17T13:02:49.038Z,13.43
2022-12-17T13:04:12.538Z,17.98
2022-12-17T13:05:39.414Z,16.58
2022-12-17T13:07:01.948Z,16.20
2022-12-17T13:08:19.993Z,16.38
2022-12-17T13:09:30.906Z,16.88
2022-12-17T13:10:37.651Z,17.02
2022-12-17T13:11:42.478Z,17.58
2022-12-17T13:12:47.760Z,17.80
2022-12-17T13:13:56.185Z,18.52
2022-12-17T13:15:07.073Z,18.85
2022-12-17T13:16:30.439Z,22.90
2022-12-17T13:17:39.813Z,18.42
2022-12-17T13:18:41.702Z,17.20
2022-12-17T13:19:57.170Z,17.83
2022-12-17T13:21:03.196Z,17.95
2022-12-17T13:22:23.635Z,17.52
2022-12-17T13:23:32.082Z,17.35
2022-12-17T13:24:33.863Z,16.48
2022-12-17T13:25:36.410Z,17.63
2022-12-17T13:26:41.322Z,17.77
2022-12-17T13:27:43.431Z,17.60
2022-12-17T13:28:58.003Z,19.58
2022-12-17T13:30:23.841Z,18.52
2022-12-17T13:31:42.108Z,18.25
2022-12-17T13:33:21.440Z,18.80
2022-12-17T13:34:35.389Z,18.20
2022-12-17T13:35:40.048Z,19.92
2022-12-17T13:37:00.576Z,19.95
2022-12-17T13:38:33.549Z,21.20
2022-12-17T13:39:51.907Z,19.10
2022-12-17T13:41:10.540Z,19.88
2022-12-17T13:42:25.018Z,20.60
2022-12-17T13:43:32.935Z,20.00
2022-12-17T13:44:45.438Z,19.98
2022-12-17T13:45:48.322Z,20.63
2022-12-17T13:46:51.956Z,21.63
2022-12-17T13:47:55.892Z,22.20
2022-12-17T13:49:00.954Z,21.83
2022-12-17T13:50:33.808Z,22.45
2022-12-17T13:51:36.911Z,22.20
2022-12-17T13:52:38.779Z,23.65
2022-12-17T13:53:40.506Z,25.23
2022-12-17T13:54:42.501Z,22.95
